Time;durP1;ratioP1;P1;durP2;ratioP2;P2;SDS_P1;SDS_P2;PMS_P1;PMS_P2;Temp;Humidity;BMP_temperature;BMP_pressure;BME280_temperature;BME280_humidity;BME280_pressure;Samples;Min_cycle;Max_cycle;Signal;HPM_P1;HPM_P2
2024/01/12 00:01:44;;;;;;;13.85;7.65;;;5.70;96.70;;;;;;4970690;28;20117;-72
2024/01/12 00:04:15;;;;;;;12.13;8.10;;;5.80;96.70;;;;;;4978574;28;20058;-73
2024/01/12 00:06:46;;;;;;;12.13;8.23;;;5.90;96.70;;;;;;4973423;28;20086;-72
2024/01/12 00:09:15;;;;;;;13.25;8.10;;;5.90;96.70;;;;;;4946810;28;20051;-71
2024/01/12 00:11:45;;;;;;;11.50;7.43;;;6.00;96.70;;;;;;4951670;28;20056;-72
2024/01/12 00:14:16;;;;;;;12.23;7.97;;;6.00;96.70;;;;;;4966829;28;20047;-72
2024/01/12 00:16:48;;;;;;;10.70;7.13;;;6.10;96.70;;;;;;4961915;28;20059;-72
2024/01/12 00:19:19;;;;;;;10.70;7.15;;;6.10;96.70;;;;;;4950006;28;20071;-72
2024/01/12 00:21:47;;;;;;;11.82;6.25;;;6.20;96.70;;;;;;4913639;29;20142;-72
2024/01/12 00:24:17;;;;;;;12.07;7.40;;;6.20;96.70;;;;;;4912615;29;20146;-70
2024/01/12 00:26:48;;;;;;;12.30;8.85;;;6.00;96.70;;;;;;4937973;29;20139;-69
2024/01/12 00:29:18;;;;;;;15.50;9.75;;;5.70;96.70;;;;;;4916555;29;20146;-70
2024/01/12 00:31:48;;;;;;;15.50;9.50;;;5.50;96.70;;;;;;4931113;29;20147;-70
2024/01/12 00:34:19;;;;;;;16.25;9.85;;;5.40;96.70;;;;;;4931357;29;20058;-70
2024/01/12 00:36:49;;;;;;;14.63;9.32;;;5.40;96.70;;;;;;4949355;28;20265;-71
2024/01/12 00:39:18;;;;;;;13.82;9.45;;;5.50;96.70;;;;;;4951551;28;20051;-71
2024/01/12 00:41:47;;;;;;;15.02;9.00;;;5.50;96.70;;;;;;4950685;28;20060;-71
2024/01/12 00:44:17;;;;;;;15.52;9.77;;;5.30;96.70;;;;;;4937933;28;20462;-71
2024/01/12 00:46:51;;;;;;;14.32;9.30;;;5.20;96.70;;;;;;4920242;29;20067;-70
2024/01/12 00:49:21;;;;;;;12.68;8.88;;;5.30;96.70;;;;;;4953797;28;20059;-71
2024/01/12 00:51:49;;;;;;;13.23;9.00;;;5.30;96.70;;;;;;4947123;28;20058;-71
2024/01/12 00:54:26;;;;;;;12.60;8.15;;;5.40;96.70;;;;;;4915439;29;20103;-71
2024/01/12 00:56:55;;;;;;;14.18;7.68;;;5.40;96.70;;;;;;4920745;29;20062;-71
2024/01/12 00:59:25;;;;;;;11.38;8.05;;;5.30;96.70;;;;;;4918994;29;20055;-71
2024/01/12 01:01:58;;;;;;;15.52;8.02;;;5.30;96.70;;;;;;4933041;28;20059;-71
2024/01/12 01:04:29;;;;;;;11.98;7.53;;;5.40;96.70;;;;;;4950472;28;20050;-71
2024/01/12 01:07:00;;;;;;;12.70;8.00;;;5.40;96.70;;;;;;4938407;29;20435;-73
2024/01/12 01:09:30;;;;;;;12.90;7.65;;;5.20;96.70;;;;;;4924530;29;20062;-73
2024/01/12 01:12:00;;;;;;;14.23;8.15;;;5.30;96.70;;;;;;4924158;29;20056;-72
2024/01/12 01:14:33;;;;;;;13.77;7.80;;;5.20;96.70;;;;;;4942102;29;20079;-72
2024/01/12 01:17:06;;;;;;;11.43;7.88;;;5.20;96.70;;;;;;4930028;29;20059;-73
2024/01/12 01:19:36;;;;;;;12.77;7.55;;;5.30;96.70;;;;;;4915101;29;20064;-72
2024/01/12 01:22:05;;;;;;;13.10;8.32;;;5.30;96.70;;;;;;4952692;28;20063;-72
2024/01/12 01:24:35;;;;;;;10.65;7.32;;;5.30;96.70;;;;;;4948911;28;20052;-71
2024/01/12 01:27:04;;;;;;;13.38;7.68;;;5.30;96.70;;;;;;4938836;29;20143;-72
2024/01/12 01:29:33;;;;;;;11.52;7.72;;;5.20;96.70;;;;;;4958999;28;20062;-72
2024/01/12 01:32:03;;;;;;;10.98;6.97;;;5.10;96.70;;;;;;4941159;29;20067;-72
2024/01/12 01:34:34;;;;;;;8.77;6.55;;;5.00;96.70;;;;;;4924912;29;20059;-72
2024/01/12 01:37:07;;;;;;;11.65;7.55;;;4.90;96.70;;;;;;4946994;28;20051;-73
2024/01/12 01:39:36;;;;;;;11.32;7.25;;;4.90;96.70;;;;;;4941867;29;20056;-72
2024/01/12 01:42:06;;;;;;;11.13;7.47;;;4.90;96.70;;;;;;4935217;29;20047;-72
2024/01/12 01:44:36;;;;;;;11.32;7.15;;;4.80;96.70;;;;;;4918844;29;20059;-72
2024/01/12 01:47:08;;;;;;;11.20;7.35;;;4.70;96.70;;;;;;4921560;29;20059;-72
2024/01/12 01:49:39;;;;;;;10.13;7.22;;;4.80;96.70;;;;;;4951290;28;20067;-72
2024/01/12 01:52:09;;;;;;;11.70;7.85;;;4.80;96.70;;;;;;4946343;28;20062;-72
2024/01/12 01:54:40;;;;;;;23.10;13.35;;;4.70;96.70;;;;;;4926257;29;20417;-73
2024/01/12 01:57:10;;;;;;;24.65;12.43;;;4.90;96.70;;;;;;4928148;29;20055;-71
2024/01/12 01:59:39;;;;;;;23.10;12.95;;;4.70;96.70;;;;;;4954632;28;20797;-70
2024/01/12 02:02:08;;;;;;;18.73;10.88;;;4.80;96.70;;;;;;4959731;28;20063;-70
2024/01/12 02:04:39;;;;;;;16.65;10.48;;;4.70;96.70;;;;;;4917564;29;20811;-70
2024/01/12 02:07:09;;;;;;;17.95;11.43;;;4.70;96.70;;;;;;4962737;28;20075;-71
2024/01/12 02:09:41;;;;;;;17.13;10.27;;;4.70;96.70;;;;;;4924653;29;20059;-70
2024/01/12 02:12:10;;;;;;;15.48;9.57;;;4.80;96.70;;;;;;4936441;29;20070;-70
2024/01/12 02:14:42;;;;;;;14.93;9.00;;;4.70;96.70;;;;;;4942824;29;20104;-74
2024/01/12 02:17:13;;;;;;;13.85;8.63;;;4.80;96.70;;;;;;4948404;28;20083;-70
2024/01/12 02:19:46;;;;;;;14.02;8.45;;;4.80;96.70;;;;;;4953603;28;20055;-70
2024/01/12 02:22:17;;;;;;;14.48;9.32;;;4.90;96.70;;;;;;4954294;28;20062;-70
2024/01/12 02:24:47;;;;;;;14.25;9.75;;;4.90;96.70;;;;;;4955266;28;20778;-70
2024/01/12 02:27:18;;;;;;;14.20;10.05;;;4.80;96.70;;;;;;4949101;28;20063;-70
2024/01/12 02:29:51;;;;;;;14.15;8.43;;;4.70;96.70;;;;;;4934412;29;20655;-70
2024/01/12 02:32:20;;;;;;;14.43;9.30;;;4.80;96.70;;;;;;4953681;28;20063;-71
2024/01/12 02:34:49;;;;;;;13.10;9.15;;;4.70;96.70;;;;;;4950299;28;20047;-70
2024/01/12 02:37:21;;;;;;;13.18;8.75;;;4.70;96.70;;;;;;4946078;29;20058;-70
2024/01/12 02:39:52;;;;;;;12.32;8.65;;;4.70;96.70;;;;;;4931812;29;20090;-72
2024/01/12 02:42:22;;;;;;;13.00;8.48;;;4.60;96.70;;;;;;4924614;29;20059;-72
2024/01/12 02:44:54;;;;;;;11.95;7.80;;;4.60;96.70;;;;;;4915741;29;20066;-72
2024/01/12 02:47:23;;;;;;;11.85;8.15;;;4.60;96.70;;;;;;4931786;29;20351;-73
2024/01/12 02:49:54;;;;;;;14.10;8.70;;;4.50;96.70;;;;;;4935378;29;20059;-72
2024/01/12 02:52:26;;;;;;;12.30;7.35;;;4.40;96.70;;;;;;4951685;28;20806;-72
2024/01/12 02:54:56;;;;;;;12.13;7.85;;;4.40;96.70;;;;;;4952444;28;20468;-71
2024/01/12 02:57:25;;;;;;;12.10;7.78;;;4.50;96.70;;;;;;4948348;28;20420;-71
2024/01/12 02:59:55;;;;;;;12.20;7.63;;;4.60;96.70;;;;;;4943172;29;20088;-71
2024/01/12 03:02:25;;;;;;;11.80;7.47;;;4.50;96.70;;;;;;4920939;29;20143;-70
2024/01/12 03:04:55;;;;;;;11.43;7.75;;;4.60;96.70;;;;;;4923060;29;20146;-71
2024/01/12 03:07:28;;;;;;;12.15;9.15;;;4.60;96.70;;;;;;4919985;29;20059;-72
2024/01/12 03:09:59;;;;;;;12.20;8.23;;;4.60;96.70;;;;;;4953075;28;20059;-72
2024/01/12 03:12:29;;;;;;;10.45;7.50;;;4.60;96.70;;;;;;4939797;29;20079;-73
2024/01/12 03:14:58;;;;;;;10.82;8.07;;;4.70;96.70;;;;;;4917682;29;20055;-72
2024/01/12 03:17:27;;;;;;;11.70;7.90;;;4.70;96.70;;;;;;4930007;28;20063;-72
2024/01/12 03:19:58;;;;;;;9.85;6.57;;;4.50;96.70;;;;;;4946138;28;20063;-72
2024/01/12 03:22:29;;;;;;;13.10;7.32;;;4.40;96.70;;;;;;4949081;28;20090;-73
2024/01/12 03:25:00;;;;;;;10.18;7.03;;;4.20;96.70;;;;;;4956953;28;20056;-72
2024/01/12 03:27:29;;;;;;;11.07;7.40;;;4.30;96.70;;;;;;4953778;28;20055;-72
2024/01/12 03:30:00;;;;;;;9.45;6.63;;;4.40;96.70;;;;;;4932332;28;20062;-72
2024/01/12 03:32:30;;;;;;;12.10;7.25;;;4.30;96.70;;;;;;4946157;28;20463;-72
2024/01/12 03:35:00;;;;;;;12.32;8.25;;;4.20;96.70;;;;;;4944975;29;20059;-72
2024/01/12 03:37:32;;;;;;;11.93;7.68;;;4.30;96.70;;;;;;4954718;28;20064;-72
2024/01/12 03:40:04;;;;;;;13.25;8.57;;;4.20;96.70;;;;;;4936918;29;20051;-72
2024/01/12 03:42:37;;;;;;;11.55;7.28;;;4.00;96.70;;;;;;4929753;29;20055;-72
2024/01/12 03:45:09;;;;;;;10.65;7.28;;;3.90;96.70;;;;;;4913811;29;20083;-72
2024/01/12 03:47:38;;;;;;;11.55;7.60;;;4.00;96.70;;;;;;4931490;29;20055;-72
2024/01/12 03:50:09;;;;;;;11.82;7.88;;;4.00;96.70;;;;;;4945299;28;20068;-72
2024/01/12 03:52:40;;;;;;;11.52;7.78;;;4.10;96.70;;;;;;4917135;29;20152;-72
2024/01/12 03:55:10;;;;;;;11.00;6.70;;;4.30;96.70;;;;;;4958569;28;20056;-73
2024/01/12 03:57:41;;;;;;;11.48;7.38;;;4.00;96.70;;;;;;4918889;29;20110;-72
2024/01/12 04:00:11;;;;;;;14.00;8.55;;;4.00;96.70;;;;;;4947222;28;20060;-73
2024/01/12 04:02:40;;;;;;;13.93;8.68;;;3.90;96.70;;;;;;4951705;28;20600;-73
2024/01/12 04:05:10;;;;;;;12.63;8.35;;;3.90;96.70;;;;;;4946819;28;20138;-72
2024/01/12 04:07:42;;;;;;;14.75;9.50;;;3.90;96.70;;;;;;4925338;29;20055;-72
2024/01/12 04:10:12;;;;;;;17.60;9.93;;;3.90;96.70;;;;;;4922270;29;20087;-72
2024/01/12 04:12:42;;;;;;;16.45;9.75;;;3.90;96.70;;;;;;4945573;28;20060;-72
2024/01/12 04:15:10;;;;;;;14.77;10.05;;;4.00;96.70;;;;;;4933149;29;20047;-72
2024/01/12 04:17:39;;;;;;;13.88;8.82;;;4.00;96.70;;;;;;4944858;28;20164;-72
2024/01/12 04:20:10;;;;;;;13.43;8.73;;;3.90;96.70;;;;;;4916332;29;20055;-72
2024/01/12 04:22:39;;;;;;;13.15;9.15;;;3.80;96.70;;;;;;4921316;29;20059;-72
2024/01/12 04:25:10;;;;;;;13.90;8.65;;;3.90;96.70;;;;;;4946508;28;20060;-72
2024/01/12 04:27:39;;;;;;;13.32;8.18;;;3.80;96.70;;;;;;4930759;29;20066;-72
2024/01/12 04:30:10;;;;;;;14.68;8.15;;;3.60;96.70;;;;;;4937566;28;20070;-72
2024/01/12 04:32:40;;;;;;;10.70;7.03;;;3.60;96.70;;;;;;4944379;28;20154;-72
2024/01/12 04:35:09;;;;;;;12.40;7.10;;;3.60;96.70;;;;;;4949375;28;20625;-73
2024/01/12 04:37:40;;;;;;;9.18;6.68;;;3.70;96.70;;;;;;4942777;28;20178;-72
2024/01/12 04:40:11;;;;;;;10.00;6.85;;;3.60;96.70;;;;;;4944166;28;20056;-72
2024/01/12 04:42:42;;;;;;;11.40;7.07;;;3.60;96.70;;;;;;4937684;29;20060;-74
2024/01/12 04:45:11;;;;;;;11.45;7.50;;;3.60;96.70;;;;;;4912257;29;20059;-73
2024/01/12 04:47:40;;;;;;;10.65;7.28;;;3.50;96.70;;;;;;4944624;28;20092;-73
2024/01/12 04:50:10;;;;;;;10.98;7.10;;;3.50;96.70;;;;;;4957878;28;20067;-72
2024/01/12 04:52:40;;;;;;;13.15;7.13;;;3.50;96.70;;;;;;4931264;29;20070;-72
2024/01/12 04:55:11;;;;;;;12.93;8.07;;;3.50;96.70;;;;;;4921647;29;20059;-72
2024/01/12 04:57:40;;;;;;;13.18;7.05;;;3.60;96.70;;;;;;4954327;28;20412;-73
2024/01/12 05:00:09;;;;;;;11.40;7.28;;;3.60;96.70;;;;;;4922792;29;20055;-73
2024/01/12 05:02:41;;;;;;;10.85;7.22;;;3.50;96.70;;;;;;4952301;28;20056;-73
2024/01/12 05:05:10;;;;;;;11.50;7.22;;;3.50;96.70;;;;;;4912778;29;20082;-73
2024/01/12 05:07:42;;;;;;;11.77;7.53;;;3.40;96.70;;;;;;4912804;29;20055;-73
2024/01/12 05:10:12;;;;;;;10.77;6.85;;;3.40;96.70;;;;;;4922048;29;20185;-73
2024/01/12 05:12:41;;;;;;;14.73;6.60;;;3.40;96.70;;;;;;4948971;28;20467;-73
2024/01/12 05:15:10;;;;;;;13.93;6.63;;;3.40;96.70;;;;;;4929516;29;20561;-73
2024/01/12 05:17:40;;;;;;;8.95;6.43;;;3.40;96.70;;;;;;4953022;28;20071;-72
2024/01/12 05:20:11;;;;;;;10.77;6.50;;;3.30;96.70;;;;;;4964529;28;20121;-73
2024/01/12 05:22:41;;;;;;;9.65;6.05;;;3.30;96.70;;;;;;4946808;28;20816;-72
2024/01/12 05:25:12;;;;;;;9.60;6.10;;;3.30;96.70;;;;;;4963348;28;20134;-73
2024/01/12 05:27:41;;;;;;;8.20;5.50;;;3.20;96.70;;;;;;4971694;28;20591;-72
2024/01/12 05:30:10;;;;;;;8.13;5.88;;;3.20;96.70;;;;;;4972660;28;20578;-72
2024/01/12 05:32:42;;;;;;;10.00;5.47;;;3.20;96.70;;;;;;4948310;28;20146;-72
2024/01/12 05:35:11;;;;;;;9.32;5.80;;;3.20;96.70;;;;;;4955695;28;20504;-72
2024/01/12 05:37:44;;;;;;;8.65;5.80;;;3.30;96.70;;;;;;4974218;28;20807;-72
2024/01/12 05:40:19;;;;;;;11.77;6.68;;;3.20;96.70;;;;;;4941610;28;20113;-72
2024/01/12 05:42:50;;;;;;;8.23;5.53;;;3.20;96.70;;;;;;4972887;28;20054;-72
2024/01/12 05:45:20;;;;;;;9.98;6.25;;;3.30;96.70;;;;;;4935247;29;20055;-73
2024/01/12 05:47:50;;;;;;;8.95;5.80;;;3.30;96.70;;;;;;4970222;28;20058;-72
2024/01/12 05:50:21;;;;;;;8.70;5.75;;;3.20;96.70;;;;;;4948286;28;20571;-73
2024/01/12 05:52:53;;;;;;;10.32;5.88;;;3.20;96.70;;;;;;4972096;28;20431;-74
2024/01/12 05:55:26;;;;;;;8.52;6.00;;;3.20;96.70;;;;;;4975947;28;20063;-72
2024/01/12 05:57:57;;;;;;;11.05;5.28;;;3.30;96.70;;;;;;4957061;28;20051;-72
2024/01/12 06:00:26;;;;;;;10.15;5.22;;;3.20;96.70;;;;;;4947222;28;20059;-72
2024/01/12 06:02:55;;;;;;;10.00;5.93;;;3.20;96.70;;;;;;4944327;28;20062;-72
2024/01/12 06:05:26;;;;;;;9.43;5.63;;;3.30;96.70;;;;;;4970789;28;20065;-72
2024/01/12 06:07:56;;;;;;;9.32;5.55;;;3.60;96.70;;;;;;4972549;28;20092;-73
2024/01/12 06:10:27;;;;;;;8.98;5.20;;;3.30;96.70;;;;;;4968613;28;20645;-72
2024/01/12 06:12:57;;;;;;;7.78;5.32;;;3.30;96.70;;;;;;4967070;28;20083;-73
2024/01/12 06:15:28;;;;;;;9.82;6.15;;;3.20;96.70;;;;;;4972899;28;21221;-72
2024/01/12 06:17:58;;;;;;;13.50;6.60;;;3.30;96.70;;;;;;4969506;28;20183;-72
2024/01/12 06:20:29;;;;;;;11.13;5.97;;;3.20;96.70;;;;;;4953678;28;20058;-73
2024/01/12 06:22:59;;;;;;;10.13;6.03;;;3.10;96.70;;;;;;4968156;28;20063;-72
2024/01/12 06:25:31;;;;;;;13.07;6.15;;;2.90;96.70;;;;;;4977014;28;20503;-72
2024/01/12 06:28:02;;;;;;;8.18;5.40;;;2.80;96.70;;;;;;4970867;28;20055;-72
2024/01/12 06:30:32;;;;;;;9.63;5.82;;;2.90;96.70;;;;;;4958516;28;20054;-72
2024/01/12 06:33:04;;;;;;;9.52;6.10;;;2.90;96.70;;;;;;4961745;28;20078;-72
2024/01/12 06:35:35;;;;;;;12.90;7.53;;;3.00;96.70;;;;;;4981582;28;21512;-72
2024/01/12 06:38:09;;;;;;;17.05;9.45;;;2.90;96.70;;;;;;4961933;28;20067;-73
2024/01/12 06:40:43;;;;;;;14.65;8.82;;;2.90;96.70;;;;;;4964358;28;20660;-72
2024/01/12 06:43:12;;;;;;;15.13;8.70;;;3.00;96.70;;;;;;4977980;28;20153;-71
2024/01/12 06:45:41;;;;;;;15.52;9.02;;;3.00;96.70;;;;;;4974035;28;20466;-72
2024/01/12 06:48:12;;;;;;;14.35;8.73;;;2.90;96.70;;;;;;4955118;28;20065;-72
2024/01/12 06:50:42;;;;;;;16.15;8.20;;;3.00;96.70;;;;;;4973296;28;20114;-72
2024/01/12 06:53:14;;;;;;;14.43;8.95;;;3.10;96.70;;;;;;4982089;28;20065;-72
2024/01/12 06:55:46;;;;;;;12.50;8.25;;;3.00;96.70;;;;;;4979288;28;20057;-72
2024/01/12 06:58:17;;;;;;;14.60;7.50;;;3.10;96.70;;;;;;4961432;28;20089;-72
2024/01/12 07:00:49;;;;;;;15.25;8.13;;;3.10;96.70;;;;;;4929855;28;20165;-72
2024/01/12 07:03:18;;;;;;;13.52;8.13;;;3.10;96.70;;;;;;4960590;28;20061;-72
2024/01/12 07:05:47;;;;;;;11.48;7.47;;;3.20;96.70;;;;;;4973233;28;20747;-72
2024/01/12 07:08:18;;;;;;;14.73;7.30;;;3.20;96.70;;;;;;4962108;28;20055;-72
2024/01/12 07:10:50;;;;;;;10.90;6.65;;;3.10;96.70;;;;;;4976882;28;20062;-72
2024/01/12 07:13:20;;;;;;;11.50;6.65;;;3.10;96.70;;;;;;4971712;28;20062;-72
2024/01/12 07:15:52;;;;;;;17.23;7.03;;;3.10;96.70;;;;;;4953140;28;20685;-72
2024/01/12 07:18:20;;;;;;;10.95;6.50;;;3.10;96.70;;;;;;4959901;28;20051;-72
2024/01/12 07:20:51;;;;;;;12.55;6.57;;;3.10;96.70;;;;;;4970168;28;20054;-72
2024/01/12 07:23:21;;;;;;;10.25;6.28;;;3.10;96.70;;;;;;4960412;28;20523;-72
2024/01/12 07:25:53;;;;;;;16.15;7.90;;;3.20;96.70;;;;;;4971187;28;20511;-72
2024/01/12 07:28:22;;;;;;;13.80;8.50;;;3.10;96.70;;;;;;4969283;28;20058;-72
2024/01/12 07:30:51;;;;;;;13.30;7.72;;;3.10;96.70;;;;;;4972624;28;20055;-72
2024/01/12 07:33:22;;;;;;;11.88;5.90;;;3.10;96.70;;;;;;4977119;28;20093;-72
2024/01/12 07:35:51;;;;;;;9.18;4.78;;;3.20;96.70;;;;;;4962629;28;20059;-72
2024/01/12 07:38:20;;;;;;;7.82;4.47;;;3.20;96.70;;;;;;4974867;28;20050;-72
2024/01/12 07:40:52;;;;;;;9.60;4.25;;;3.30;96.70;;;;;;4968538;28;20057;-72
2024/01/12 07:43:20;;;;;;;13.60;5.40;;;3.40;96.70;;;;;;4949159;28;20058;-73
2024/01/12 07:45:51;;;;;;;13.48;5.45;;;3.40;96.70;;;;;;4975473;28;20051;-73
2024/01/12 07:48:21;;;;;;;19.08;7.45;;;3.40;96.70;;;;;;4975798;28;20082;-73
2024/01/12 07:50:49;;;;;;;15.30;7.35;;;3.30;96.70;;;;;;4965561;28;20049;-73
2024/01/12 07:53:18;;;;;;;14.55;5.82;;;3.00;96.70;;;;;;4964961;28;20094;-73
2024/01/12 07:55:49;;;;;;;18.08;5.88;;;3.20;96.70;;;;;;4974483;28;20149;-73
2024/01/12 07:58:20;;;;;;;14.00;5.85;;;3.30;96.70;;;;;;4970764;28;20452;-73
2024/01/12 08:00:49;;;;;;;15.68;6.57;;;3.20;96.70;;;;;;4950933;28;20050;-74
2024/01/12 08:03:18;;;;;;;11.95;5.93;;;3.30;96.70;;;;;;4971247;28;20139;-73
2024/01/12 08:05:50;;;;;;;13.25;5.70;;;3.50;96.70;;;;;;4972087;28;20082;-73
2024/01/12 08:08:20;;;;;;;11.07;5.07;;;3.70;96.70;;;;;;4969535;28;20134;-73
2024/01/12 08:10:49;;;;;;;10.60;5.72;;;3.80;96.70;;;;;;4959825;28;20054;-73
2024/01/12 08:13:21;;;;;;;11.65;5.57;;;3.90;96.70;;;;;;4974852;28;20062;-74
2024/01/12 08:15:51;;;;;;;9.88;5.60;;;3.90;96.70;;;;;;4957854;28;20054;-74
2024/01/12 08:18:22;;;;;;;16.83;6.10;;;4.00;96.70;;;;;;4981397;28;20054;-73
2024/01/12 08:20:51;;;;;;;11.80;6.57;;;4.10;96.70;;;;;;4979873;28;20054;-73
2024/01/12 08:23:20;;;;;;;13.85;6.72;;;4.20;96.70;;;;;;4959943;28;20625;-73
2024/01/12 08:25:49;;;;;;;19.17;8.63;;;4.30;96.70;;;;;;4965973;28;20159;-73
2024/01/12 08:28:22;;;;;;;16.10;9.10;;;4.20;96.70;;;;;;4969118;28;20049;-72
2024/01/12 08:30:50;;;;;;;15.63;9.75;;;4.10;96.70;;;;;;4949834;28;20054;-73
2024/01/12 08:33:20;;;;;;;13.70;8.95;;;4.20;96.70;;;;;;4951050;28;20581;-74
2024/01/12 08:35:50;;;;;;;16.00;9.25;;;4.30;96.70;;;;;;4952306;28;20070;-74
2024/01/12 08:38:19;;;;;;;15.93;8.30;;;4.50;96.70;;;;;;4956034;28;20074;-73
2024/01/12 08:40:47;;;;;;;17.52;8.90;;;4.60;96.70;;;;;;4966457;28;20149;-73
2024/01/12 08:43:17;;;;;;;11.25;7.32;;;4.70;96.70;;;;;;4966705;28;20578;-73
2024/01/12 08:45:47;;;;;;;13.63;7.22;;;4.80;96.70;;;;;;4948895;28;20145;-73
2024/01/12 08:48:17;;;;;;;12.82;7.35;;;4.90;96.70;;;;;;4962114;28;20082;-73
2024/01/12 08:50:47;;;;;;;16.73;8.38;;;5.00;96.70;;;;;;4973768;28;20054;-73
2024/01/12 08:53:16;;;;;;;16.30;8.60;;;5.10;96.70;;;;;;4966670;28;20078;-73
2024/01/12 08:55:46;;;;;;;16.85;9.43;;;5.20;96.70;;;;;;4961119;28;20061;-73
2024/01/12 08:58:16;;;;;;;20.90;10.25;;;5.30;96.70;;;;;;4968268;28;20106;-73
2024/01/12 09:00:46;;;;;;;19.27;9.90;;;5.40;96.70;;;;;;4956321;28;20141;-72
2024/01/12 09:03:15;;;;;;;16.02;8.98;;;5.40;96.70;;;;;;4952361;28;20121;-73
2024/01/12 09:05:44;;;;;;;18.38;10.07;;;5.50;96.70;;;;;;4954603;28;20141;-73
2024/01/12 09:08:14;;;;;;;14.07;8.90;;;5.60;96.70;;;;;;4947801;28;20520;-73
2024/01/12 09:10:44;;;;;;;21.05;10.00;;;5.80;96.70;;;;;;4965887;28;20062;-73
2024/01/12 09:13:14;;;;;;;15.35;8.98;;;5.90;96.70;;;;;;4968935;28;20074;-73
2024/01/12 09:15:42;;;;;;;16.20;8.63;;;6.00;96.70;;;;;;4969285;28;20086;-73
2024/01/12 09:18:14;;;;;;;14.73;8.75;;;6.20;96.70;;;;;;4951202;28;20061;-73
2024/01/12 09:20:43;;;;;;;19.33;8.88;;;6.30;96.70;;;;;;4965713;28;20107;-71
2024/01/12 09:23:13;;;;;;;15.43;7.65;;;6.40;96.70;;;;;;4937258;28;20058;-70
2024/01/12 09:25:43;;;;;;;14.40;8.05;;;6.40;96.70;;;;;;4973539;28;20979;-70
2024/01/12 09:28:14;;;;;;;13.63;6.28;;;6.60;96.70;;;;;;4981106;28;20051;-72
2024/01/12 09:30:44;;;;;;;39.28;17.75;;;6.60;96.70;;;;;;4963171;28;20065;-73
2024/01/12 09:33:21;;;;;;;24.25;9.82;;;6.80;96.70;;;;;;4975203;28;20065;-73
2024/01/12 09:35:51;;;;;;;24.42;11.18;;;6.90;96.70;;;;;;4958717;28;20064;-73
2024/01/12 09:38:21;;;;;;;23.05;10.95;;;7.00;96.70;;;;;;4968687;28;20302;-73
2024/01/12 09:40:49;;;;;;;24.35;10.20;;;7.00;96.70;;;;;;4954306;28;20146;-71
2024/01/12 09:43:21;;;;;;;20.25;10.48;;;7.10;96.70;;;;;;4969970;28;20055;-71
2024/01/12 09:45:52;;;;;;;24.90;10.63;;;7.30;96.70;;;;;;4950406;28;20059;-71
2024/01/12 09:48:24;;;;;;;21.20;10.18;;;7.40;96.70;;;;;;4970593;28;20128;-72
2024/01/12 09:50:59;;;;;;;21.88;10.15;;;7.50;96.70;;;;;;4964628;28;20070;-70
2024/01/12 09:53:29;;;;;;;18.20;9.15;;;7.60;96.70;;;;;;4979387;28;20100;-70
2024/01/12 09:55:59;;;;;;;20.40;10.65;;;7.70;96.70;;;;;;4968899;28;20054;-71
2024/01/12 09:58:37;;;;;;;20.02;10.40;;;7.90;96.70;;;;;;4961265;28;20051;-71
2024/01/12 10:01:08;;;;;;;18.60;10.65;;;8.00;96.70;;;;;;4953714;28;20086;-71
2024/01/12 10:03:39;;;;;;;22.27;12.23;;;8.10;96.70;;;;;;4961771;28;20081;-71
2024/01/12 10:06:10;;;;;;;20.23;11.20;;;8.30;96.70;;;;;;4973847;28;20059;-73
2024/01/12 10:08:40;;;;;;;22.08;11.13;;;8.40;96.70;;;;;;4977718;28;20062;-70
2024/01/12 10:11:09;;;;;;;20.30;12.48;;;8.50;96.70;;;;;;4975849;28;20074;-71
2024/01/12 10:13:38;;;;;;;17.83;10.40;;;8.60;96.70;;;;;;4962025;28;20101;-72
2024/01/12 10:16:10;;;;;;;18.33;10.43;;;8.80;96.70;;;;;;4958429;28;20054;-71
2024/01/12 10:18:43;;;;;;;15.50;9.07;;;8.90;96.70;;;;;;4955388;28;20324;-71
2024/01/12 10:21:14;;;;;;;18.23;9.88;;;9.00;96.70;;;;;;4963295;28;20057;-71
2024/01/12 10:23:44;;;;;;;14.65;8.07;;;9.20;96.70;;;;;;4978731;28;20078;-74
2024/01/12 10:26:17;;;;;;;11.98;6.85;;;9.30;96.70;;;;;;4966911;28;20188;-72
2024/01/12 10:28:47;;;;;;;10.10;6.20;;;9.50;96.70;;;;;;4984185;28;20561;-73
2024/01/12 10:31:16;;;;;;;14.95;8.73;;;9.70;96.70;;;;;;4969825;28;20423;-72
2024/01/12 10:33:47;;;;;;;24.05;10.77;;;9.80;96.70;;;;;;4940225;28;20105;-73
2024/01/12 10:36:23;;;;;;;19.95;10.65;;;9.80;96.70;;;;;;4972440;28;20054;-73
2024/01/12 10:38:52;;;;;;;20.27;10.25;;;9.70;96.70;;;;;;4965633;28;20061;-73
2024/01/12 10:41:24;;;;;;;16.30;9.77;;;9.60;96.70;;;;;;4969333;28;20432;-72
2024/01/12 10:43:59;;;;;;;15.95;9.18;;;9.70;96.70;;;;;;4961362;28;20167;-72
2024/01/12 10:46:34;;;;;;;16.05;8.60;;;9.80;96.70;;;;;;4972663;28;20058;-73
2024/01/12 10:49:14;;;;;;;16.85;9.27;;;9.90;96.70;;;;;;4974436;28;20133;-75
2024/01/12 10:51:54;;;;;;;15.75;8.18;;;10.00;96.70;;;;;;4978493;28;20606;-73
2024/01/12 10:54:28;;;;;;;12.05;7.60;;;10.20;96.70;;;;;;4954333;28;20077;-73
2024/01/12 10:56:58;;;;;;;15.07;7.75;;;10.30;96.70;;;;;;4969297;28;20058;-72
2024/01/12 10:59:29;;;;;;;12.10;7.95;;;10.40;96.70;;;;;;4961121;28;20062;-73
2024/01/12 11:02:00;;;;;;;11.13;7.10;;;10.60;96.70;;;;;;4945277;28;20485;-72
2024/01/12 11:04:31;;;;;;;12.23;8.07;;;10.70;96.70;;;;;;4953143;28;20523;-73
2024/01/12 11:07:02;;;;;;;14.63;8.20;;;10.80;96.70;;;;;;4964860;28;20085;-73
2024/01/12 11:09:31;;;;;;;11.88;6.65;;;10.90;96.70;;;;;;4961880;28;20064;-73
2024/01/12 11:12:04;;;;;;;11.63;6.65;;;11.00;96.70;;;;;;4970531;28;20102;-73
2024/01/12 11:14:52;;;;;;;8.75;5.22;;;11.20;96.70;;;;;;4953807;28;20776;-73
2024/01/12 11:17:27;;;;;;;5.95;3.70;;;11.30;96.70;;;;;;4956791;28;20055;-73
2024/01/12 11:20:10;;;;;;;8.10;3.90;;;11.40;96.70;;;;;;4968563;28;20055;-73
2024/01/12 11:22:42;;;;;;;8.38;5.80;;;11.60;96.70;;;;;;4976683;28;20058;-73
2024/01/12 11:25:13;;;;;;;8.85;5.38;;;11.70;96.70;;;;;;4952406;28;20062;-72
2024/01/12 11:27:43;;;;;;;6.10;4.05;;;11.80;96.70;;;;;;4963186;28;20051;-73
2024/01/12 11:30:12;;;;;;;4.70;3.20;;;11.80;96.70;;;;;;4960753;28;20401;-73
2024/01/12 11:32:44;;;;;;;5.53;3.30;;;11.90;96.70;;;;;;4969788;28;20065;-73
2024/01/12 11:35:17;;;;;;;5.13;3.22;;;12.10;96.70;;;;;;4985831;28;20058;-73
2024/01/12 11:37:59;;;;;;;5.60;3.00;;;12.10;96.70;;;;;;4986152;28;20719;-73
2024/01/12 11:40:30;;;;;;;3.60;1.80;;;12.20;96.70;;;;;;4969699;28;20464;-73
2024/01/12 11:43:04;;;;;;;2.20;1.40;;;12.30;96.70;;;;;;4953816;28;20165;-73
2024/01/12 11:45:39;;;;;;;4.30;2.60;;;12.40;96.70;;;;;;4950685;28;20126;-73
2024/01/12 11:48:09;;;;;;;1.98;1.40;;;12.50;96.70;;;;;;4936013;28;20050;-73
2024/01/12 11:50:41;;;;;;;2.67;1.10;;;12.70;96.70;;;;;;4968851;28;20060;-73
2024/01/12 11:53:13;;;;;;;3.85;2.00;;;12.80;96.70;;;;;;4961125;28;20090;-73
2024/01/12 11:55:45;;;;;;;2.13;1.20;;;12.80;96.70;;;;;;4967967;28;20578;-74
2024/01/12 11:58:16;;;;;;;2.60;0.90;;;13.00;96.70;;;;;;4966573;28;20054;-73
2024/01/12 12:00:48;;;;;;;1.20;0.80;;;13.10;96.70;;;;;;4973385;28;20153;-74
2024/01/12 12:03:19;;;;;;;1.48;1.00;;;13.30;96.70;;;;;;4975975;28;20065;-73
2024/01/12 12:05:50;;;;;;;2.47;1.05;;;13.30;96.70;;;;;;4966586;28;20054;-73
2024/01/12 12:08:19;;;;;;;1.30;0.70;;;13.40;96.70;;;;;;4971224;28;20097;-73
2024/01/12 12:10:50;;;;;;;1.75;1.05;;;13.50;96.70;;;;;;4954140;28;20136;-74
2024/01/12 12:13:22;;;;;;;1.42;0.82;;;13.60;96.70;;;;;;4959376;28;20058;-74
2024/01/12 12:15:52;;;;;;;1.05;0.65;;;13.60;96.70;;;;;;4970862;28;20097;-73
2024/01/12 12:18:23;;;;;;;0.88;0.60;;;13.70;96.70;;;;;;4970515;28;20239;-73
2024/01/12 12:20:57;;;;;;;1.10;0.70;;;13.70;96.70;;;;;;4960430;28;20427;-73
2024/01/12 12:23:26;;;;;;;1.95;0.75;;;13.70;96.70;;;;;;4977306;28;20401;-74
2024/01/12 12:25:56;;;;;;;0.90;0.60;;;13.70;96.70;;;;;;4959226;28;20058;-74
2024/01/12 12:28:26;;;;;;;1.25;0.70;;;13.80;96.70;;;;;;4968323;28;20566;-73
2024/01/12 12:30:56;;;;;;;1.02;0.70;;;13.90;96.70;;;;;;4959195;28;20074;-74
2024/01/12 12:33:24;;;;;;;1.05;0.50;;;13.90;96.70;;;;;;4975165;28;20065;-73
2024/01/12 12:36:08;;;;;;;1.10;0.77;;;13.90;96.70;;;;;;4967141;28;20470;-73
2024/01/12 12:38:38;;;;;;;2.72;1.50;;;14.00;96.70;;;;;;4944354;28;20158;-74
2024/01/12 12:41:07;;;;;;;1.50;0.73;;;14.00;96.70;;;;;;4967831;28;20110;-72
2024/01/12 12:43:37;;;;;;;1.40;0.88;;;14.00;96.70;;;;;;4959863;28;20051;-74
2024/01/12 12:46:07;;;;;;;2.15;0.80;;;14.10;96.70;;;;;;4951346;28;20054;-74
2024/01/12 12:48:40;;;;;;;1.55;0.80;;;14.20;96.70;;;;;;4951052;28;20057;-74
2024/01/12 12:51:11;;;;;;;1.35;0.80;;;14.30;96.70;;;;;;4974987;28;20066;-73
2024/01/12 12:53:40;;;;;;;1.60;0.82;;;14.40;96.70;;;;;;4971825;28;20065;-74
2024/01/12 12:56:09;;;;;;;1.58;0.90;;;14.50;96.70;;;;;;4967967;28;20721;-74
2024/01/12 12:58:38;;;;;;;4.88;1.05;;;14.50;96.70;;;;;;4982850;28;20050;-74
2024/01/12 13:01:07;;;;;;;3.45;0.90;;;14.50;96.70;;;;;;4962165;28;20057;-73
2024/01/12 13:03:35;;;;;;;1.10;0.50;;;14.50;96.70;;;;;;4950621;28;20063;-73